AirNav   Air Wisconsin Up To $57,000 Bonus
 
 1464 users online  

21PN UPMC Carlisle Heliport
Carlisle, Pennsylvania, USA

GOING TO CARLISLE?


FAA INFORMATION EFFECTIVE 05 DECEMBER 2019

Location

FAA Identifier: 21PN
Lat/Long: 40-10-59.9900N 077-13-22.1100W
40-10.999833N 077-13.368500W
40.1833306,-77.2228083
(estimated)
Elevation: 1115 ft. / 340 m (estimated)
From city: 1 mile SW of CARLISLE, PA
Time zone: UTC -5 (UTC -4 during Daylight Saving Time)
Zip code: 17015

Heliport Operations

Heliport use: Private use. Permission required prior to landing
Activation date: 11/2008
Control tower: no
ARTCC: NEW YORK CENTER
FSS: WILLIAMSPORT FLIGHT SERVICE STATION
Attendance: UNATNDD
Wind indicator: yes
Segmented circle: no

Heliport Communications

WX ASOS at CXY (17 nm E): PHONE 717-770-0880

Nearby radio navigation aids

VOR radial/distance  VOR name  Freq  Var
HARr235/10.0HARRISBURG VORTAC112.5010W
RAVr243/36.1RAVINE VORTAC114.6011W
THSr073/36.7ST THOMAS VORTAC115.0007W
SEGr211/39.6SELINSGROVE VOR/DME110.4008W

 
NDB name  Hdg/Dist  Freq  Var  ID
LATLE283/10.021911WCX -.-. -..-
BELLGROVE254/34.232810WBZJ -... --.. .---

Heliport Services

Runway Information

Helipad H1

Dimensions: 40 x 40 ft. / 12 x 12 m
Surface: asphalt
Latitude: 40-10.999833N
Longitude: 077-13.368500W
Elevation: 1115.0 ft.
Traffic pattern: leftleft

Heliport Ownership and Management from official FAA records

Ownership: Privately-owned
Owner: UPMC CARLISLE
361 ALEXANDER SPRING DRIVE
CARLISLE, PA 17015
Phone 717-249-1212
Manager: BILLY DEMORY
361 ALEXANDER SPRING ROAD
CARLISLE, PA 17015
Phone 717-249-1212

Additional Remarks

FOR CD CTC HARRISBURG APCH AT 800-932-0712.

Instrument Procedures

There are no published instrument procedures at 21PN.

Some nearby airports with instrument procedures:

N94 - Carlisle Airport (2 nm E)
KCXY - Capital City Airport (17 nm E)
W05 - Gettysburg Regional Airport (21 nm S)
KMDT - Harrisburg International Airport (21 nm E)
KTHV - York Airport (23 nm SE)
 
Loc | Ops | Rwys | IFR | FBO | Links
Com | Nav | Svcs | Stats | Notes
Aerial photo
No photo
 
Sectional chart

 
Airport distance calculator
Flying to UPMC Carlisle Heliport? Find the distance to fly.

From to 21PN

Sunrise and sunset
Times for 09-Dec-2019
 Local
(UTC-5)
 Zulu
(UTC)
Morning civil twilight06:5011:50
Sunrise07:2112:21
Sunset16:4221:42
Evening civil twilight17:1222:12

Current date and time
Zulu (UTC)  09-Dec-2019 19:27:51
Local (UTC-5)  09-Dec-2019 14:27:51
 
METAR
KCXY 
17nm E 
091856Z 00000KT 2 1/2SM -RA OVC009 08/05 A2988 RMK AO2 SLP121 P0005 T00780050
KMDT 
21nm E 
091856Z 12005KT 2 1/2SM -RA BR BKN008 OVC017 07/05 A2987 RMK AO2 CIG 005V012 SLP118 P0008 T00670050
KTHV 
22nm SE 
091912Z AUTO 19007KT 5SM -RA BR SCT013 BKN060 OVC075 08/06 A2986 RMK AO2 P0002 T00830061
KMUI 
33nm NE 
091507Z 00000KT 3/8SM -RA FG OVC002 04/04 A3005 RMK AO2A RAB07 SLP183 RVRNO $
TAF
KMDT 
21nm E 
091746Z 0918/1018 17005KT 1SM -RA BR BKN008 OVC015 WS015/22035KT FM091900 17005KT 4SM -RA BR BKN008 OVC015 WS015/22035KT FM092300 19009KT 6SM BR VCSH OVC015 WS020/22040KT FM100400 21009KT P6SM VCSH BKN030 OVC070 WS020/24045KT FM101200 23006KT 6SM BR OVC050 FM101400 23004KT 4SM -RA OVC050
NOTAMs
Click for the latest NOTAMs
NOTAMs are issued by the DoD/FAA and will open in a separate window not controlled by AirNav.

 

 
 

Would you like to see your business listed on this page?

 If your business provides an interesting product or service to pilots, flight crews, aircraft, or users of the UPMC Carlisle Heliport, you should consider listing it here.  To start the listing process, click on the button below
 
Add a business
 

Other Pages about UPMC Carlisle Heliport

Update a link
 
Copyright © AirNav, LLC. All rights reserved. Privacy Policy  Contact